Latex, Texas
Current Conditions -  °F | °C
As of 11:55 AM on Tuesday 21 Oct 2014 (Local Time) from KASL Reporting Station
Broken Clouds Broken Clouds  
Wind Chill: 76°   Ceiling: 6500
Heat Index: 78°   Visibility: 10mi
Dew Point: 60°   Wind: 0mph
Humidity: 57%   Direction: NA
Pressure: 30.14"   Gusts: NA
Location:  32.3555°N, 94.0955°W
Report Text: KASL 211655Z AUTO 00000KT 10SM SCT050 BKN065 25/16 A3014 RMK AO1 T02450155
Loading
Personal Weather Stations






























Interactive Weather Map
Tropical Storm Tracking
New forecast layout! Learn more

10-Day Weather Forecast

Advertisements
Track Severe Weather on mobile